sensor_id;sensor_type;location;lat;lon;timestamp;P1;durP1;ratioP1;P2;durP2;ratioP2
54953;SDS011;40855;51.072;5.402;2023-02-11T00:01:54;34.17;;;17.15;;
54953;SDS011;40855;51.072;5.402;2023-02-11T00:04:19;36.67;;;18.08;;
54953;SDS011;40855;51.072;5.402;2023-02-11T00:06:45;34.40;;;17.10;;
54953;SDS011;40855;51.072;5.402;2023-02-11T00:09:11;33.35;;;17.42;;
54953;SDS011;40855;51.072;5.402;2023-02-11T00:11:37;35.70;;;16.38;;
54953;SDS011;40855;51.072;5.402;2023-02-11T00:14:03;37.88;;;17.85;;
54953;SDS011;40855;51.072;5.402;2023-02-11T00:16:31;33.90;;;15.50;;
54953;SDS011;40855;51.072;5.402;2023-02-11T00:18:58;30.48;;;15.65;;
54953;SDS011;40855;51.072;5.402;2023-02-11T00:21:25;34.08;;;14.70;;
54953;SDS011;40855;51.072;5.402;2023-02-11T00:23:51;28.60;;;15.63;;
54953;SDS011;40855;51.072;5.402;2023-02-11T00:26:22;31.38;;;16.45;;
54953;SDS011;40855;51.072;5.402;2023-02-11T00:28:50;31.33;;;15.07;;
54953;SDS011;40855;51.072;5.402;2023-02-11T00:31:17;29.30;;;15.65;;
54953;SDS011;40855;51.072;5.402;2023-02-11T00:33:44;36.83;;;17.05;;
54953;SDS011;40855;51.072;5.402;2023-02-11T00:36:12;35.58;;;16.58;;
54953;SDS011;40855;51.072;5.402;2023-02-11T00:38:44;28.08;;;15.00;;
54953;SDS011;40855;51.072;5.402;2023-02-11T00:41:10;32.33;;;15.40;;
54953;SDS011;40855;51.072;5.402;2023-02-11T00:43:37;26.80;;;14.48;;
54953;SDS011;40855;51.072;5.402;2023-02-11T00:46:03;34.95;;;15.20;;
54953;SDS011;40855;51.072;5.402;2023-02-11T00:48:29;33.00;;;15.45;;
54953;SDS011;40855;51.072;5.402;2023-02-11T00:50:55;35.67;;;15.77;;
54953;SDS011;40855;51.072;5.402;2023-02-11T00:53:21;30.35;;;14.82;;
54953;SDS011;40855;51.072;5.402;2023-02-11T00:55:47;28.33;;;14.90;;
54953;SDS011;40855;51.072;5.402;2023-02-11T00:58:12;29.48;;;14.32;;
54953;SDS011;40855;51.072;5.402;2023-02-11T01:00:38;32.28;;;14.27;;
54953;SDS011;40855;51.072;5.402;2023-02-11T01:03:04;28.75;;;13.68;;
54953;SDS011;40855;51.072;5.402;2023-02-11T01:05:30;29.88;;;13.27;;
54953;SDS011;40855;51.072;5.402;2023-02-11T01:07:56;27.05;;;14.30;;
54953;SDS011;40855;51.072;5.402;2023-02-11T01:10:22;28.27;;;12.85;;
54953;SDS011;40855;51.072;5.402;2023-02-11T01:12:48;33.30;;;12.73;;
54953;SDS011;40855;51.072;5.402;2023-02-11T01:15:14;24.90;;;12.98;;
54953;SDS011;40855;51.072;5.402;2023-02-11T01:17:42;26.23;;;12.90;;
54953;SDS011;40855;51.072;5.402;2023-02-11T01:20:10;24.20;;;12.15;;
54953;SDS011;40855;51.072;5.402;2023-02-11T01:22:38;29.45;;;13.85;;
54953;SDS011;40855;51.072;5.402;2023-02-11T01:25:05;31.42;;;14.10;;
54953;SDS011;40855;51.072;5.402;2023-02-11T01:27:32;32.90;;;16.08;;
54953;SDS011;40855;51.072;5.402;2023-02-11T01:29:58;31.35;;;15.65;;
54953;SDS011;40855;51.072;5.402;2023-02-11T01:32:24;33.58;;;17.60;;
54953;SDS011;40855;51.072;5.402;2023-02-11T01:34:49;30.27;;;16.65;;
54953;SDS011;40855;51.072;5.402;2023-02-11T01:37:15;33.08;;;16.25;;
54953;SDS011;40855;51.072;5.402;2023-02-11T01:39:41;27.60;;;16.23;;
54953;SDS011;40855;51.072;5.402;2023-02-11T01:42:08;32.85;;;15.25;;
54953;SDS011;40855;51.072;5.402;2023-02-11T01:44:40;28.00;;;14.90;;
54953;SDS011;40855;51.072;5.402;2023-02-11T01:47:05;30.70;;;13.60;;
54953;SDS011;40855;51.072;5.402;2023-02-11T01:49:32;32.15;;;14.48;;
54953;SDS011;40855;51.072;5.402;2023-02-11T01:52:09;27.27;;;12.82;;
54953;SDS011;40855;51.072;5.402;2023-02-11T01:55:03;27.10;;;12.13;;
54953;SDS011;40855;51.072;5.402;2023-02-11T01:57:51;26.48;;;12.32;;
54953;SDS011;40855;51.072;5.402;2023-02-11T02:00:21;31.55;;;12.45;;
54953;SDS011;40855;51.072;5.402;2023-02-11T02:03:12;25.20;;;12.50;;
54953;SDS011;40855;51.072;5.402;2023-02-11T02:05:50;26.42;;;12.30;;
54953;SDS011;40855;51.072;5.402;2023-02-11T02:11:08;22.92;;;12.52;;
54953;SDS011;40855;51.072;5.402;2023-02-11T02:13:34;28.88;;;12.75;;
54953;SDS011;40855;51.072;5.402;2023-02-11T02:16:01;23.15;;;11.38;;
54953;SDS011;40855;51.072;5.402;2023-02-11T02:35:00;28.88;;;12.48;;
54953;SDS011;40855;51.072;5.402;2023-02-11T02:38:07;31.40;;;13.43;;
54953;SDS011;40855;51.072;5.402;2023-02-11T02:40:33;26.85;;;13.07;;
54953;SDS011;40855;51.072;5.402;2023-02-11T02:43:09;24.55;;;12.07;;
54953;SDS011;40855;51.072;5.402;2023-02-11T02:45:36;28.23;;;11.70;;
54953;SDS011;40855;51.072;5.402;2023-02-11T02:48:01;26.10;;;11.13;;
54953;SDS011;40855;51.072;5.402;2023-02-11T02:50:29;24.58;;;11.57;;
54953;SDS011;40855;51.072;5.402;2023-02-11T03:03:33;25.00;;;10.30;;
54953;SDS011;40855;51.072;5.402;2023-02-11T03:06:22;22.73;;;9.60;;
54953;SDS011;40855;51.072;5.402;2023-02-11T03:11:24;20.38;;;9.80;;
54953;SDS011;40855;51.072;5.402;2023-02-11T03:13:51;24.10;;;9.20;;
54953;SDS011;40855;51.072;5.402;2023-02-11T03:16:24;24.17;;;9.32;;
54953;SDS011;40855;51.072;5.402;2023-02-11T03:18:52;25.00;;;10.30;;
54953;SDS011;40855;51.072;5.402;2023-02-11T03:21:24;22.95;;;8.93;;
54953;SDS011;40855;51.072;5.402;2023-02-11T03:23:52;23.50;;;9.00;;
54953;SDS011;40855;51.072;5.402;2023-02-11T03:26:31;16.67;;;7.43;;
54953;SDS011;40855;51.072;5.402;2023-02-11T03:31:35;25.63;;;9.23;;
54953;SDS011;40855;51.072;5.402;2023-02-11T03:34:09;25.88;;;8.65;;
54953;SDS011;40855;51.072;5.402;2023-02-11T03:37:04;15.38;;;7.60;;
54953;SDS011;40855;51.072;5.402;2023-02-11T03:39:59;18.00;;;8.50;;
54953;SDS011;40855;51.072;5.402;2023-02-11T03:42:32;21.98;;;8.55;;
54953;SDS011;40855;51.072;5.402;2023-02-11T03:45:04;24.40;;;9.75;;
54953;SDS011;40855;51.072;5.402;2023-02-11T03:47:34;18.60;;;8.65;;
54953;SDS011;40855;51.072;5.402;2023-02-11T03:50:04;21.75;;;9.40;;
54953;SDS011;40855;51.072;5.402;2023-02-11T03:52:33;22.20;;;9.57;;
54953;SDS011;40855;51.072;5.402;2023-02-11T03:55:01;21.70;;;9.25;;
54953;SDS011;40855;51.072;5.402;2023-02-11T03:57:32;22.67;;;8.77;;
54953;SDS011;40855;51.072;5.402;2023-02-11T03:59:58;24.40;;;9.02;;
54953;SDS011;40855;51.072;5.402;2023-02-11T04:02:34;21.45;;;8.73;;
54953;SDS011;40855;51.072;5.402;2023-02-11T04:05:01;26.48;;;9.95;;
54953;SDS011;40855;51.072;5.402;2023-02-11T04:07:30;20.23;;;9.02;;
54953;SDS011;40855;51.072;5.402;2023-02-11T04:09:56;25.55;;;8.88;;
54953;SDS011;40855;51.072;5.402;2023-02-11T04:12:22;22.88;;;9.40;;
54953;SDS011;40855;51.072;5.402;2023-02-11T04:14:48;22.85;;;9.10;;
54953;SDS011;40855;51.072;5.402;2023-02-11T04:17:13;20.52;;;10.10;;
54953;SDS011;40855;51.072;5.402;2023-02-11T04:19:39;24.70;;;10.13;;
54953;SDS011;40855;51.072;5.402;2023-02-11T04:22:05;23.45;;;9.38;;
54953;SDS011;40855;51.072;5.402;2023-02-11T04:24:31;20.60;;;10.00;;
54953;SDS011;40855;51.072;5.402;2023-02-11T04:26:57;22.25;;;8.65;;
54953;SDS011;40855;51.072;5.402;2023-02-11T04:29:22;25.60;;;8.95;;
54953;SDS011;40855;51.072;5.402;2023-02-11T04:31:48;24.45;;;10.20;;
54953;SDS011;40855;51.072;5.402;2023-02-11T04:34:14;19.73;;;9.80;;
54953;SDS011;40855;51.072;5.402;2023-02-11T04:36:40;17.50;;;8.95;;
54953;SDS011;40855;51.072;5.402;2023-02-11T04:39:06;19.95;;;9.57;;
54953;SDS011;40855;51.072;5.402;2023-02-11T04:41:32;25.05;;;8.77;;
54953;SDS011;40855;51.072;5.402;2023-02-11T04:43:58;20.77;;;10.07;;
54953;SDS011;40855;51.072;5.402;2023-02-11T04:46:24;21.08;;;9.57;;
54953;SDS011;40855;51.072;5.402;2023-02-11T04:48:49;26.30;;;10.27;;
54953;SDS011;40855;51.072;5.402;2023-02-11T04:51:15;26.42;;;8.75;;
54953;SDS011;40855;51.072;5.402;2023-02-11T04:53:41;20.92;;;10.43;;
54953;SDS011;40855;51.072;5.402;2023-02-11T04:56:07;25.60;;;9.40;;
54953;SDS011;40855;51.072;5.402;2023-02-11T04:58:32;17.38;;;8.93;;
54953;SDS011;40855;51.072;5.402;2023-02-11T05:01:05;18.38;;;8.90;;
54953;SDS011;40855;51.072;5.402;2023-02-11T05:03:32;21.98;;;9.70;;
54953;SDS011;40855;51.072;5.402;2023-02-11T05:05:57;21.70;;;10.70;;
54953;SDS011;40855;51.072;5.402;2023-02-11T05:08:23;25.50;;;11.32;;
54953;SDS011;40855;51.072;5.402;2023-02-11T05:10:49;25.20;;;10.23;;
54953;SDS011;40855;51.072;5.402;2023-02-11T05:13:14;24.25;;;8.23;;
54953;SDS011;40855;51.072;5.402;2023-02-11T05:15:40;25.15;;;9.80;;
54953;SDS011;40855;51.072;5.402;2023-02-11T05:18:06;33.83;;;10.82;;
54953;SDS011;40855;51.072;5.402;2023-02-11T05:20:31;14.02;;;6.88;;
54953;SDS011;40855;51.072;5.402;2023-02-11T05:22:57;20.13;;;9.18;;
54953;SDS011;40855;51.072;5.402;2023-02-11T05:25:23;17.65;;;8.88;;
54953;SDS011;40855;51.072;5.402;2023-02-11T05:27:48;20.83;;;8.95;;
54953;SDS011;40855;51.072;5.402;2023-02-11T05:30:14;20.40;;;10.25;;
54953;SDS011;40855;51.072;5.402;2023-02-11T05:32:40;28.17;;;10.15;;
54953;SDS011;40855;51.072;5.402;2023-02-11T05:35:05;23.35;;;9.40;;
54953;SDS011;40855;51.072;5.402;2023-02-11T05:37:32;24.80;;;9.80;;
54953;SDS011;40855;51.072;5.402;2023-02-11T05:39:58;26.98;;;9.85;;
54953;SDS011;40855;51.072;5.402;2023-02-11T05:42:23;19.65;;;9.73;;
54953;SDS011;40855;51.072;5.402;2023-02-11T05:44:49;30.13;;;9.70;;
54953;SDS011;40855;51.072;5.402;2023-02-11T05:47:15;29.48;;;10.35;;
54953;SDS011;40855;51.072;5.402;2023-02-11T05:49:40;19.13;;;9.98;;
54953;SDS011;40855;51.072;5.402;2023-02-11T05:52:06;27.17;;;11.05;;
54953;SDS011;40855;51.072;5.402;2023-02-11T05:54:32;26.27;;;10.85;;
54953;SDS011;40855;51.072;5.402;2023-02-11T05:56:57;30.42;;;10.77;;
54953;SDS011;40855;51.072;5.402;2023-02-11T05:59:23;23.33;;;10.75;;
54953;SDS011;40855;51.072;5.402;2023-02-11T06:01:49;26.90;;;10.30;;
54953;SDS011;40855;51.072;5.402;2023-02-11T06:04:14;30.52;;;11.77;;
54953;SDS011;40855;51.072;5.402;2023-02-11T06:06:40;17.55;;;9.88;;
54953;SDS011;40855;51.072;5.402;2023-02-11T06:09:06;26.65;;;10.27;;
54953;SDS011;40855;51.072;5.402;2023-02-11T06:11:33;22.73;;;10.23;;
54953;SDS011;40855;51.072;5.402;2023-02-11T06:13:59;24.88;;;9.02;;
54953;SDS011;40855;51.072;5.402;2023-02-11T06:16:25;25.98;;;11.25;;
54953;SDS011;40855;51.072;5.402;2023-02-11T06:18:51;25.63;;;10.50;;
54953;SDS011;40855;51.072;5.402;2023-02-11T06:21:17;23.52;;;10.18;;
54953;SDS011;40855;51.072;5.402;2023-02-11T06:23:42;22.95;;;11.55;;
54953;SDS011;40855;51.072;5.402;2023-02-11T06:26:09;24.13;;;10.30;;
54953;SDS011;40855;51.072;5.402;2023-02-11T06:28:42;14.77;;;8.77;;
54953;SDS011;40855;51.072;5.402;2023-02-11T06:31:08;28.45;;;10.88;;
54953;SDS011;40855;51.072;5.402;2023-02-11T06:33:35;26.60;;;10.65;;
54953;SDS011;40855;51.072;5.402;2023-02-11T06:36:02;32.38;;;11.52;;
54953;SDS011;40855;51.072;5.402;2023-02-11T06:38:29;26.80;;;12.50;;
54953;SDS011;40855;51.072;5.402;2023-02-11T06:40:55;28.33;;;11.45;;
54953;SDS011;40855;51.072;5.402;2023-02-11T06:43:20;33.25;;;13.25;;
54953;SDS011;40855;51.072;5.402;2023-02-11T06:45:51;36.45;;;13.40;;
54953;SDS011;40855;51.072;5.402;2023-02-11T06:48:18;29.30;;;11.80;;
54953;SDS011;40855;51.072;5.402;2023-02-11T06:50:44;28.70;;;11.95;;
54953;SDS011;40855;51.072;5.402;2023-02-11T06:53:10;38.00;;;13.45;;
54953;SDS011;40855;51.072;5.402;2023-02-11T06:55:36;20.73;;;11.20;;
54953;SDS011;40855;51.072;5.402;2023-02-11T06:58:01;28.60;;;12.80;;
54953;SDS011;40855;51.072;5.402;2023-02-11T07:00:27;26.00;;;12.77;;
54953;SDS011;40855;51.072;5.402;2023-02-11T07:02:53;28.15;;;12.98;;
54953;SDS011;40855;51.072;5.402;2023-02-11T07:05:19;25.98;;;13.98;;
54953;SDS011;40855;51.072;5.402;2023-02-11T07:07:45;29.60;;;13.73;;
54953;SDS011;40855;51.072;5.402;2023-02-11T07:10:11;34.72;;;13.95;;
54953;SDS011;40855;51.072;5.402;2023-02-11T07:12:36;29.50;;;14.50;;
54953;SDS011;40855;51.072;5.402;2023-02-11T07:15:04;25.00;;;11.77;;
54953;SDS011;40855;51.072;5.402;2023-02-11T07:17:30;28.00;;;13.40;;
54953;SDS011;40855;51.072;5.402;2023-02-11T07:19:55;38.75;;;14.07;;
54953;SDS011;40855;51.072;5.402;2023-02-11T07:22:21;28.67;;;14.57;;
54953;SDS011;40855;51.072;5.402;2023-02-11T07:24:47;33.65;;;13.68;;
54953;SDS011;40855;51.072;5.402;2023-02-11T07:27:12;34.47;;;14.85;;
54953;SDS011;40855;51.072;5.402;2023-02-11T07:29:38;36.95;;;15.23;;
54953;SDS011;40855;51.072;5.402;2023-02-11T07:32:05;31.40;;;13.80;;
54953;SDS011;40855;51.072;5.402;2023-02-11T07:34:31;39.00;;;14.90;;
54953;SDS011;40855;51.072;5.402;2023-02-11T07:36:57;35.55;;;14.35;;
54953;SDS011;40855;51.072;5.402;2023-02-11T07:39:22;38.40;;;15.98;;
54953;SDS011;40855;51.072;5.402;2023-02-11T07:41:51;34.78;;;16.05;;
54953;SDS011;40855;51.072;5.402;2023-02-11T07:44:20;35.47;;;13.07;;
54953;SDS011;40855;51.072;5.402;2023-02-11T07:46:46;32.70;;;15.63;;
54953;SDS011;40855;51.072;5.402;2023-02-11T07:49:13;31.80;;;15.95;;
54953;SDS011;40855;51.072;5.402;2023-02-11T07:51:39;24.65;;;14.80;;
54953;SDS011;40855;51.072;5.402;2023-02-11T07:54:05;28.98;;;15.63;;
54953;SDS011;40855;51.072;5.402;2023-02-11T07:56:31;36.08;;;17.25;;
54953;SDS011;40855;51.072;5.402;2023-02-11T07:59:01;34.30;;;16.83;;
54953;SDS011;40855;51.072;5.402;2023-02-11T08:01:27;44.08;;;15.32;;
54953;SDS011;40855;51.072;5.402;2023-02-11T08:03:57;40.83;;;19.33;;
54953;SDS011;40855;51.072;5.402;2023-02-11T08:06:25;37.00;;;15.98;;
54953;SDS011;40855;51.072;5.402;2023-02-11T08:08:52;36.95;;;17.02;;
54953;SDS011;40855;51.072;5.402;2023-02-11T08:11:27;36.90;;;16.92;;
54953;SDS011;40855;51.072;5.402;2023-02-11T08:16:21;33.42;;;16.98;;
54953;SDS011;40855;51.072;5.402;2023-02-11T08:18:52;35.45;;;16.67;;
54953;SDS011;40855;51.072;5.402;2023-02-11T08:21:21;36.10;;;16.35;;
54953;SDS011;40855;51.072;5.402;2023-02-11T08:23:47;36.13;;;16.20;;
54953;SDS011;40855;51.072;5.402;2023-02-11T08:26:15;40.47;;;17.08;;
54953;SDS011;40855;51.072;5.402;2023-02-11T08:28:45;42.53;;;16.77;;
54953;SDS011;40855;51.072;5.402;2023-02-11T08:31:16;42.55;;;20.30;;
54953;SDS011;40855;51.072;5.402;2023-02-11T08:33:49;41.10;;;17.45;;
54953;SDS011;40855;51.072;5.402;2023-02-11T08:36:19;40.42;;;18.33;;
54953;SDS011;40855;51.072;5.402;2023-02-11T08:38:46;33.70;;;17.77;;
54953;SDS011;40855;51.072;5.402;2023-02-11T08:41:12;44.38;;;18.58;;
54953;SDS011;40855;51.072;5.402;2023-02-11T08:43:39;45.78;;;18.50;;
54953;SDS011;40855;51.072;5.402;2023-02-11T08:46:06;49.20;;;18.08;;
54953;SDS011;40855;51.072;5.402;2023-02-11T08:48:32;55.50;;;19.85;;
54953;SDS011;40855;51.072;5.402;2023-02-11T08:50:58;43.22;;;20.65;;
54953;SDS011;40855;51.072;5.402;2023-02-11T08:53:24;40.50;;;20.20;;
54953;SDS011;40855;51.072;5.402;2023-02-11T08:55:51;47.03;;;20.63;;
54953;SDS011;40855;51.072;5.402;2023-02-11T08:58:19;57.40;;;21.05;;
54953;SDS011;40855;51.072;5.402;2023-02-11T09:00:46;49.70;;;20.45;;
54953;SDS011;40855;51.072;5.402;2023-02-11T09:03:13;49.30;;;21.67;;
54953;SDS011;40855;51.072;5.402;2023-02-11T09:05:43;49.03;;;22.38;;
54953;SDS011;40855;51.072;5.402;2023-02-11T09:08:10;45.78;;;18.63;;
54953;SDS011;40855;51.072;5.402;2023-02-11T09:10:36;46.03;;;20.58;;
54953;SDS011;40855;51.072;5.402;2023-02-11T09:13:02;55.00;;;23.15;;
54953;SDS011;40855;51.072;5.402;2023-02-11T09:15:29;47.70;;;22.05;;
54953;SDS011;40855;51.072;5.402;2023-02-11T09:17:55;53.30;;;20.02;;
54953;SDS011;40855;51.072;5.402;2023-02-11T09:20:21;48.45;;;22.05;;
54953;SDS011;40855;51.072;5.402;2023-02-11T09:22:47;49.20;;;21.35;;
54953;SDS011;40855;51.072;5.402;2023-02-11T09:25:13;41.78;;;18.77;;
54953;SDS011;40855;51.072;5.402;2023-02-11T09:27:39;51.38;;;23.50;;
54953;SDS011;40855;51.072;5.402;2023-02-11T09:30:04;55.30;;;25.38;;
54953;SDS011;40855;51.072;5.402;2023-02-11T09:32:30;52.55;;;22.38;;
54953;SDS011;40855;51.072;5.402;2023-02-11T09:34:56;54.65;;;24.95;;
54953;SDS011;40855;51.072;5.402;2023-02-11T09:37:22;50.88;;;21.95;;
54953;SDS011;40855;51.072;5.402;2023-02-11T09:39:48;57.30;;;24.45;;
54953;SDS011;40855;51.072;5.402;2023-02-11T09:42:19;61.10;;;22.52;;
54953;SDS011;40855;51.072;5.402;2023-02-11T09:44:54;60.78;;;24.73;;
54953;SDS011;40855;51.072;5.402;2023-02-11T09:47:29;52.15;;;23.45;;
54953;SDS011;40855;51.072;5.402;2023-02-11T09:50:01;58.10;;;24.17;;
54953;SDS011;40855;51.072;5.402;2023-02-11T09:55:17;48.33;;;21.60;;
54953;SDS011;40855;51.072;5.402;2023-02-11T09:57:45;56.05;;;24.33;;
54953;SDS011;40855;51.072;5.402;2023-02-11T10:00:16;59.58;;;24.65;;
54953;SDS011;40855;51.072;5.402;2023-02-11T10:08:12;66.82;;;26.63;;
54953;SDS011;40855;51.072;5.402;2023-02-11T10:10:51;59.33;;;24.25;;
54953;SDS011;40855;51.072;5.402;2023-02-11T10:13:46;55.47;;;25.35;;
54953;SDS011;40855;51.072;5.402;2023-02-11T10:16:27;72.30;;;27.75;;
54953;SDS011;40855;51.072;5.402;2023-02-11T10:24:15;70.40;;;27.88;;
54953;SDS011;40855;51.072;5.402;2023-02-11T10:26:43;61.88;;;26.02;;
54953;SDS011;40855;51.072;5.402;2023-02-11T10:32:00;65.90;;;27.27;;
54953;SDS011;40855;51.072;5.402;2023-02-11T10:34:31;63.22;;;25.23;;
54953;SDS011;40855;51.072;5.402;2023-02-11T10:36:57;75.22;;;28.98;;
54953;SDS011;40855;51.072;5.402;2023-02-11T10:39:24;73.72;;;28.10;;
54953;SDS011;40855;51.072;5.402;2023-02-11T10:41:51;82.03;;;29.50;;
54953;SDS011;40855;51.072;5.402;2023-02-11T10:44:26;72.30;;;27.13;;
54953;SDS011;40855;51.072;5.402;2023-02-11T10:46:56;71.07;;;30.33;;
54953;SDS011;40855;51.072;5.402;2023-02-11T10:49:33;74.97;;;24.73;;
54953;SDS011;40855;51.072;5.402;2023-02-11T10:57:38;75.75;;;28.55;;
54953;SDS011;40855;51.072;5.402;2023-02-11T11:02:43;82.53;;;32.78;;
54953;SDS011;40855;51.072;5.402;2023-02-11T11:05:17;67.82;;;26.52;;
54953;SDS011;40855;51.072;5.402;2023-02-11T11:07:52;83.43;;;31.77;;
54953;SDS011;40855;51.072;5.402;2023-02-11T11:10:36;88.25;;;31.00;;
54953;SDS011;40855;51.072;5.402;2023-02-11T11:18:38;77.60;;;29.58;;
54953;SDS011;40855;51.072;5.402;2023-02-11T11:21:23;71.72;;;31.05;;
54953;SDS011;40855;51.072;5.402;2023-02-11T11:23:55;83.37;;;32.63;;
54953;SDS011;40855;51.072;5.402;2023-02-11T11:26:38;86.00;;;34.97;;
54953;SDS011;40855;51.072;5.402;2023-02-11T11:29:07;64.70;;;29.85;;
54953;SDS011;40855;51.072;5.402;2023-02-11T11:31:53;78.32;;;33.03;;
54953;SDS011;40855;51.072;5.402;2023-02-11T11:34:39;70.68;;;30.25;;
54953;SDS011;40855;51.072;5.402;2023-02-11T11:37:11;71.03;;;30.63;;
54953;SDS011;40855;51.072;5.402;2023-02-11T11:39:43;76.63;;;32.90;;
54953;SDS011;40855;51.072;5.402;2023-02-11T11:42:31;81.75;;;30.33;;
54953;SDS011;40855;51.072;5.402;2023-02-11T11:45:02;63.42;;;27.15;;
54953;SDS011;40855;51.072;5.402;2023-02-11T11:50:34;69.78;;;30.38;;
54953;SDS011;40855;51.072;5.402;2023-02-11T11:55:47;79.75;;;31.60;;
54953;SDS011;40855;51.072;5.402;2023-02-11T11:58:20;65.32;;;28.88;;
54953;SDS011;40855;51.072;5.402;2023-02-11T12:06:38;74.95;;;33.47;;
54953;SDS011;40855;51.072;5.402;2023-02-11T12:11:56;77.75;;;33.00;;
54953;SDS011;40855;51.072;5.402;2023-02-11T12:14:40;70.95;;;32.10;;
54953;SDS011;40855;51.072;5.402;2023-02-11T12:28:32;72.85;;;31.08;;
54953;SDS011;40855;51.072;5.402;2023-02-11T12:31:45;76.75;;;31.60;;
54953;SDS011;40855;51.072;5.402;2023-02-11T12:34:03;63.55;;;29.10;;
54953;SDS011;40855;51.072;5.402;2023-02-11T12:39:39;71.03;;;31.17;;
54953;SDS011;40855;51.072;5.402;2023-02-11T12:42:43;70.00;;;30.17;;
54953;SDS011;40855;51.072;5.402;2023-02-11T12:48:25;76.50;;;32.00;;
54953;SDS011;40855;51.072;5.402;2023-02-11T12:58:54;80.50;;;31.95;;
54953;SDS011;40855;51.072;5.402;2023-02-11T13:01:25;76.03;;;33.42;;
54953;SDS011;40855;51.072;5.402;2023-02-11T13:06:28;74.40;;;32.85;;
54953;SDS011;40855;51.072;5.402;2023-02-11T13:09:05;81.85;;;33.42;;
54953;SDS011;40855;51.072;5.402;2023-02-11T13:11:41;73.25;;;32.00;;
54953;SDS011;40855;51.072;5.402;2023-02-11T13:16:53;87.78;;;35.55;;
54953;SDS011;40855;51.072;5.402;2023-02-11T13:19:34;82.40;;;33.30;;
54953;SDS011;40855;51.072;5.402;2023-02-11T13:24:50;83.30;;;36.78;;
54953;SDS011;40855;51.072;5.402;2023-02-11T13:27:28;80.57;;;34.75;;
54953;SDS011;40855;51.072;5.402;2023-02-11T13:35:31;69.38;;;30.95;;
54953;SDS011;40855;51.072;5.402;2023-02-11T13:38:00;73.40;;;33.53;;
54953;SDS011;40855;51.072;5.402;2023-02-11T13:40:35;77.95;;;35.38;;
54953;SDS011;40855;51.072;5.402;2023-02-11T13:43:03;73.75;;;33.92;;
54953;SDS011;40855;51.072;5.402;2023-02-11T13:45:43;75.50;;;34.13;;
54953;SDS011;40855;51.072;5.402;2023-02-11T13:48:24;76.05;;;34.45;;
54953;SDS011;40855;51.072;5.402;2023-02-11T13:51:10;77.55;;;34.45;;
54953;SDS011;40855;51.072;5.402;2023-02-11T13:53:48;79.82;;;36.40;;
54953;SDS011;40855;51.072;5.402;2023-02-11T13:56:31;64.53;;;30.67;;
54953;SDS011;40855;51.072;5.402;2023-02-11T13:59:02;81.45;;;35.33;;
54953;SDS011;40855;51.072;5.402;2023-02-11T14:04:36;77.07;;;35.15;;
54953;SDS011;40855;51.072;5.402;2023-02-11T14:08:03;81.45;;;34.22;;
54953;SDS011;40855;51.072;5.402;2023-02-11T14:10:49;68.03;;;32.10;;
54953;SDS011;40855;51.072;5.402;2023-02-11T17:15:19;70.68;;;36.05;;
54953;SDS011;40855;51.072;5.402;2023-02-11T17:17:45;77.40;;;38.50;;
54953;SDS011;40855;51.072;5.402;2023-02-11T17:20:11;80.53;;;38.15;;
54953;SDS011;40855;51.072;5.402;2023-02-11T17:22:37;74.32;;;36.35;;
54953;SDS011;40855;51.072;5.402;2023-02-11T17:25:03;79.70;;;36.40;;
54953;SDS011;40855;51.072;5.402;2023-02-11T17:27:30;72.40;;;35.13;;
54953;SDS011;40855;51.072;5.402;2023-02-11T17:29:56;79.85;;;36.72;;
54953;SDS011;40855;51.072;5.402;2023-02-11T17:32:22;72.38;;;35.67;;
54953;SDS011;40855;51.072;5.402;2023-02-11T17:34:48;78.22;;;36.38;;
54953;SDS011;40855;51.072;5.402;2023-02-11T17:37:13;73.82;;;35.08;;
54953;SDS011;40855;51.072;5.402;2023-02-11T17:39:39;71.15;;;34.65;;
54953;SDS011;40855;51.072;5.402;2023-02-11T17:42:05;74.30;;;35.92;;
54953;SDS011;40855;51.072;5.402;2023-02-11T17:44:32;72.50;;;34.35;;
54953;SDS011;40855;51.072;5.402;2023-02-11T17:46:58;71.43;;;36.28;;
54953;SDS011;40855;51.072;5.402;2023-02-11T17:49:23;78.20;;;37.65;;
54953;SDS011;40855;51.072;5.402;2023-02-11T17:51:49;72.35;;;36.25;;
54953;SDS011;40855;51.072;5.402;2023-02-11T17:54:16;79.15;;;37.42;;
54953;SDS011;40855;51.072;5.402;2023-02-11T17:56:43;80.32;;;36.63;;
54953;SDS011;40855;51.072;5.402;2023-02-11T17:59:11;82.00;;;37.25;;
54953;SDS011;40855;51.072;5.402;2023-02-11T18:01:38;73.82;;;36.42;;
54953;SDS011;40855;51.072;5.402;2023-02-11T18:04:05;80.55;;;36.90;;
54953;SDS011;40855;51.072;5.402;2023-02-11T18:06:32;82.22;;;38.35;;
54953;SDS011;40855;51.072;5.402;2023-02-11T18:08:58;76.05;;;37.28;;
54953;SDS011;40855;51.072;5.402;2023-02-11T18:11:26;82.38;;;38.97;;
54953;SDS011;40855;51.072;5.402;2023-02-11T18:13:54;69.88;;;37.53;;
54953;SDS011;40855;51.072;5.402;2023-02-11T18:16:23;81.70;;;38.85;;
54953;SDS011;40855;51.072;5.402;2023-02-11T18:18:51;73.88;;;36.50;;
54953;SDS011;40855;51.072;5.402;2023-02-11T18:21:18;67.47;;;34.42;;
54953;SDS011;40855;51.072;5.402;2023-02-11T18:23:45;63.80;;;34.20;;
54953;SDS011;40855;51.072;5.402;2023-02-11T18:26:11;67.93;;;33.95;;
54953;SDS011;40855;51.072;5.402;2023-02-11T18:28:38;71.60;;;35.80;;
54953;SDS011;40855;51.072;5.402;2023-02-11T18:31:05;79.55;;;38.58;;
54953;SDS011;40855;51.072;5.402;2023-02-11T18:33:31;70.85;;;35.95;;
54953;SDS011;40855;51.072;5.402;2023-02-11T18:35:58;74.80;;;37.90;;
54953;SDS011;40855;51.072;5.402;2023-02-11T18:38:23;75.32;;;37.22;;
54953;SDS011;40855;51.072;5.402;2023-02-11T18:40:49;72.72;;;37.05;;
54953;SDS011;40855;51.072;5.402;2023-02-11T18:43:16;75.57;;;37.83;;
54953;SDS011;40855;51.072;5.402;2023-02-11T18:45:43;73.07;;;36.67;;
54953;SDS011;40855;51.072;5.402;2023-02-11T18:48:13;70.15;;;35.72;;
54953;SDS011;40855;51.072;5.402;2023-02-11T18:50:40;75.72;;;38.03;;
54953;SDS011;40855;51.072;5.402;2023-02-11T18:53:08;74.30;;;35.45;;
54953;SDS011;40855;51.072;5.402;2023-02-11T18:55:36;77.18;;;37.92;;
54953;SDS011;40855;51.072;5.402;2023-02-11T18:58:02;75.85;;;37.42;;
54953;SDS011;40855;51.072;5.402;2023-02-11T19:00:28;78.07;;;37.35;;
54953;SDS011;40855;51.072;5.402;2023-02-11T19:02:56;70.75;;;34.78;;
54953;SDS011;40855;51.072;5.402;2023-02-11T19:05:22;72.55;;;35.80;;
54953;SDS011;40855;51.072;5.402;2023-02-11T19:07:50;64.05;;;34.45;;
54953;SDS011;40855;51.072;5.402;2023-02-11T19:10:15;70.55;;;34.30;;
54953;SDS011;40855;51.072;5.402;2023-02-11T19:12:41;72.47;;;35.08;;
54953;SDS011;40855;51.072;5.402;2023-02-11T19:15:07;69.15;;;35.60;;
54953;SDS011;40855;51.072;5.402;2023-02-11T19:17:33;71.95;;;36.80;;
54953;SDS011;40855;51.072;5.402;2023-02-11T19:19:59;76.13;;;36.00;;
54953;SDS011;40855;51.072;5.402;2023-02-11T19:22:24;71.50;;;35.95;;
54953;SDS011;40855;51.072;5.402;2023-02-11T19:24:50;78.13;;;36.65;;
54953;SDS011;40855;51.072;5.402;2023-02-11T19:27:16;75.75;;;36.45;;
54953;SDS011;40855;51.072;5.402;2023-02-11T19:29:42;73.70;;;36.65;;
54953;SDS011;40855;51.072;5.402;2023-02-11T19:32:08;71.82;;;36.13;;
54953;SDS011;40855;51.072;5.402;2023-02-11T19:34:35;73.88;;;35.80;;
54953;SDS011;40855;51.072;5.402;2023-02-11T19:37:05;76.43;;;36.22;;
54953;SDS011;40855;51.072;5.402;2023-02-11T19:39:31;71.95;;;36.40;;
54953;SDS011;40855;51.072;5.402;2023-02-11T19:41:57;74.97;;;38.00;;